sensor_id;sensor_type;location;lat;lon;timestamp;P1;durP1;ratioP1;P2;durP2;ratioP2
20449;SDS011;10384;51.940;8.432;2024-02-15T00:01:51;31.27;;;12.40;;
20449;SDS011;10384;51.940;8.432;2024-02-15T00:04:16;26.50;;;11.13;;
20449;SDS011;10384;51.940;8.432;2024-02-15T00:06:44;32.10;;;12.70;;
20449;SDS011;10384;51.940;8.432;2024-02-15T00:09:09;34.27;;;12.87;;
20449;SDS011;10384;51.940;8.432;2024-02-15T00:11:35;31.53;;;12.53;;
20449;SDS011;10384;51.940;8.432;2024-02-15T00:14:01;30.30;;;11.50;;
20449;SDS011;10384;51.940;8.432;2024-02-15T00:16:26;26.50;;;10.50;;
20449;SDS011;10384;51.940;8.432;2024-02-15T00:18:52;32.50;;;11.80;;
20449;SDS011;10384;51.940;8.432;2024-02-15T00:21:20;32.70;;;11.93;;
20449;SDS011;10384;51.940;8.432;2024-02-15T00:23:47;30.00;;;11.20;;
20449;SDS011;10384;51.940;8.432;2024-02-15T00:26:13;28.83;;;11.27;;
20449;SDS011;10384;51.940;8.432;2024-02-15T00:28:41;29.37;;;10.93;;
20449;SDS011;10384;51.940;8.432;2024-02-15T00:31:07;28.10;;;11.13;;
20449;SDS011;10384;51.940;8.432;2024-02-15T00:33:33;26.20;;;11.03;;
20449;SDS011;10384;51.940;8.432;2024-02-15T00:36:00;32.53;;;13.83;;
20449;SDS011;10384;51.940;8.432;2024-02-15T00:38:26;31.03;;;12.07;;
20449;SDS011;10384;51.940;8.432;2024-02-15T00:40:52;31.70;;;11.63;;
20449;SDS011;10384;51.940;8.432;2024-02-15T00:43:18;35.67;;;11.77;;
20449;SDS011;10384;51.940;8.432;2024-02-15T00:45:44;32.03;;;10.80;;
20449;SDS011;10384;51.940;8.432;2024-02-15T00:48:10;29.57;;;11.70;;
20449;SDS011;10384;51.940;8.432;2024-02-15T00:50:36;34.00;;;11.97;;
20449;SDS011;10384;51.940;8.432;2024-02-15T00:53:02;30.77;;;12.17;;
20449;SDS011;10384;51.940;8.432;2024-02-15T00:55:27;26.70;;;9.93;;
20449;SDS011;10384;51.940;8.432;2024-02-15T00:57:53;23.20;;;9.60;;
20449;SDS011;10384;51.940;8.432;2024-02-15T01:00:19;28.43;;;10.27;;
20449;SDS011;10384;51.940;8.432;2024-02-15T01:02:45;25.77;;;10.07;;
20449;SDS011;10384;51.940;8.432;2024-02-15T01:05:11;25.40;;;9.23;;
20449;SDS011;10384;51.940;8.432;2024-02-15T01:07:36;26.67;;;10.53;;
20449;SDS011;10384;51.940;8.432;2024-02-15T01:10:02;25.03;;;9.03;;
20449;SDS011;10384;51.940;8.432;2024-02-15T01:12:28;24.47;;;9.33;;
20449;SDS011;10384;51.940;8.432;2024-02-15T01:14:54;24.83;;;9.97;;
20449;SDS011;10384;51.940;8.432;2024-02-15T01:17:21;25.10;;;9.57;;
20449;SDS011;10384;51.940;8.432;2024-02-15T01:19:47;24.20;;;9.17;;
20449;SDS011;10384;51.940;8.432;2024-02-15T01:22:12;25.27;;;10.23;;
20449;SDS011;10384;51.940;8.432;2024-02-15T01:24:38;24.87;;;9.73;;
20449;SDS011;10384;51.940;8.432;2024-02-15T01:27:04;29.53;;;10.20;;
20449;SDS011;10384;51.940;8.432;2024-02-15T01:29:32;26.37;;;9.87;;
20449;SDS011;10384;51.940;8.432;2024-02-15T01:31:58;28.63;;;10.07;;
20449;SDS011;10384;51.940;8.432;2024-02-15T01:34:24;28.67;;;10.33;;
20449;SDS011;10384;51.940;8.432;2024-02-15T01:36:49;26.03;;;8.97;;
20449;SDS011;10384;51.940;8.432;2024-02-15T01:39:15;20.17;;;8.13;;
20449;SDS011;10384;51.940;8.432;2024-02-15T01:41:45;18.53;;;8.00;;
20449;SDS011;10384;51.940;8.432;2024-02-15T01:44:13;18.47;;;7.93;;
20449;SDS011;10384;51.940;8.432;2024-02-15T01:46:38;18.97;;;7.33;;
20449;SDS011;10384;51.940;8.432;2024-02-15T01:49:05;18.00;;;7.23;;
20449;SDS011;10384;51.940;8.432;2024-02-15T01:51:33;19.93;;;8.20;;
20449;SDS011;10384;51.940;8.432;2024-02-15T01:54:02;18.77;;;7.73;;
20449;SDS011;10384;51.940;8.432;2024-02-15T01:56:27;23.33;;;9.40;;
20449;SDS011;10384;51.940;8.432;2024-02-15T01:58:55;16.73;;;7.60;;
20449;SDS011;10384;51.940;8.432;2024-02-15T02:01:21;16.70;;;7.50;;
20449;SDS011;10384;51.940;8.432;2024-02-15T02:03:47;22.77;;;9.10;;
20449;SDS011;10384;51.940;8.432;2024-02-15T02:06:13;20.30;;;8.00;;
20449;SDS011;10384;51.940;8.432;2024-02-15T02:08:39;19.47;;;7.67;;
20449;SDS011;10384;51.940;8.432;2024-02-15T02:11:04;19.67;;;7.90;;
20449;SDS011;10384;51.940;8.432;2024-02-15T02:13:31;22.30;;;8.17;;
20449;SDS011;10384;51.940;8.432;2024-02-15T02:15:56;18.27;;;8.37;;
20449;SDS011;10384;51.940;8.432;2024-02-15T02:18:22;17.43;;;7.50;;
20449;SDS011;10384;51.940;8.432;2024-02-15T02:20:49;18.83;;;7.27;;
20449;SDS011;10384;51.940;8.432;2024-02-15T02:23:15;19.60;;;7.27;;
20449;SDS011;10384;51.940;8.432;2024-02-15T02:25:44;18.80;;;7.70;;
20449;SDS011;10384;51.940;8.432;2024-02-15T02:28:11;21.33;;;9.13;;
20449;SDS011;10384;51.940;8.432;2024-02-15T02:30:37;19.00;;;8.40;;
20449;SDS011;10384;51.940;8.432;2024-02-15T02:33:09;19.93;;;8.37;;
20449;SDS011;10384;51.940;8.432;2024-02-15T02:35:43;21.63;;;8.43;;
20449;SDS011;10384;51.940;8.432;2024-02-15T02:38:09;25.53;;;9.17;;
20449;SDS011;10384;51.940;8.432;2024-02-15T02:40:36;25.00;;;9.53;;
20449;SDS011;10384;51.940;8.432;2024-02-15T02:43:02;29.23;;;10.10;;
20449;SDS011;10384;51.940;8.432;2024-02-15T02:45:28;29.90;;;10.87;;
20449;SDS011;10384;51.940;8.432;2024-02-15T02:47:53;27.60;;;9.63;;
20449;SDS011;10384;51.940;8.432;2024-02-15T02:50:22;26.50;;;9.50;;
20449;SDS011;10384;51.940;8.432;2024-02-15T02:52:48;25.40;;;9.23;;
20449;SDS011;10384;51.940;8.432;2024-02-15T02:55:14;26.40;;;11.07;;
20449;SDS011;10384;51.940;8.432;2024-02-15T02:57:40;23.30;;;9.47;;
20449;SDS011;10384;51.940;8.432;2024-02-15T03:00:07;23.83;;;9.90;;
20449;SDS011;10384;51.940;8.432;2024-02-15T03:02:38;23.00;;;9.60;;
20449;SDS011;10384;51.940;8.432;2024-02-15T03:05:04;29.03;;;9.40;;
20449;SDS011;10384;51.940;8.432;2024-02-15T03:07:37;28.13;;;9.70;;
20449;SDS011;10384;51.940;8.432;2024-02-15T03:10:05;26.77;;;10.30;;
20449;SDS011;10384;51.940;8.432;2024-02-15T03:12:36;27.73;;;10.87;;
20449;SDS011;10384;51.940;8.432;2024-02-15T03:15:05;27.93;;;9.90;;
20449;SDS011;10384;51.940;8.432;2024-02-15T03:17:36;31.70;;;10.73;;
20449;SDS011;10384;51.940;8.432;2024-02-15T03:20:06;26.27;;;10.53;;
20449;SDS011;10384;51.940;8.432;2024-02-15T03:22:36;30.07;;;11.33;;
20449;SDS011;10384;51.940;8.432;2024-02-15T03:25:03;28.93;;;10.70;;
20449;SDS011;10384;51.940;8.432;2024-02-15T03:27:33;26.17;;;9.93;;
20449;SDS011;10384;51.940;8.432;2024-02-15T03:30:00;23.17;;;8.90;;
20449;SDS011;10384;51.940;8.432;2024-02-15T03:32:26;22.70;;;9.73;;
20449;SDS011;10384;51.940;8.432;2024-02-15T03:34:51;25.30;;;9.00;;
20449;SDS011;10384;51.940;8.432;2024-02-15T03:37:19;19.10;;;8.57;;
20449;SDS011;10384;51.940;8.432;2024-02-15T03:39:45;18.57;;;8.83;;
20449;SDS011;10384;51.940;8.432;2024-02-15T03:42:11;22.10;;;9.33;;
20449;SDS011;10384;51.940;8.432;2024-02-15T03:44:37;20.90;;;8.77;;
20449;SDS011;10384;51.940;8.432;2024-02-15T03:47:03;21.57;;;8.90;;
20449;SDS011;10384;51.940;8.432;2024-02-15T03:49:30;21.10;;;8.73;;
20449;SDS011;10384;51.940;8.432;2024-02-15T03:51:56;24.77;;;9.73;;
20449;SDS011;10384;51.940;8.432;2024-02-15T03:54:24;25.43;;;9.33;;
20449;SDS011;10384;51.940;8.432;2024-02-15T03:56:50;23.70;;;9.87;;
20449;SDS011;10384;51.940;8.432;2024-02-15T03:59:20;21.80;;;8.90;;
20449;SDS011;10384;51.940;8.432;2024-02-15T04:01:47;23.83;;;9.33;;
20449;SDS011;10384;51.940;8.432;2024-02-15T04:04:12;21.27;;;9.23;;
20449;SDS011;10384;51.940;8.432;2024-02-15T04:06:38;24.90;;;9.50;;
20449;SDS011;10384;51.940;8.432;2024-02-15T04:09:05;28.23;;;10.40;;
20449;SDS011;10384;51.940;8.432;2024-02-15T04:11:32;26.40;;;10.33;;
20449;SDS011;10384;51.940;8.432;2024-02-15T04:13:58;26.73;;;10.27;;
20449;SDS011;10384;51.940;8.432;2024-02-15T04:16:24;24.30;;;9.53;;
20449;SDS011;10384;51.940;8.432;2024-02-15T04:18:51;27.97;;;10.07;;
20449;SDS011;10384;51.940;8.432;2024-02-15T04:21:16;24.53;;;9.37;;
20449;SDS011;10384;51.940;8.432;2024-02-15T04:23:44;22.60;;;9.73;;
20449;SDS011;10384;51.940;8.432;2024-02-15T04:26:11;20.63;;;8.53;;
20449;SDS011;10384;51.940;8.432;2024-02-15T04:28:38;19.33;;;8.27;;
20449;SDS011;10384;51.940;8.432;2024-02-15T04:31:04;17.00;;;7.27;;
20449;SDS011;10384;51.940;8.432;2024-02-15T04:33:34;17.30;;;6.90;;
20449;SDS011;10384;51.940;8.432;2024-02-15T04:36:00;15.83;;;6.90;;
20449;SDS011;10384;51.940;8.432;2024-02-15T04:38:29;20.47;;;7.60;;
20449;SDS011;10384;51.940;8.432;2024-02-15T04:40:55;20.13;;;7.50;;
20449;SDS011;10384;51.940;8.432;2024-02-15T04:43:21;17.73;;;7.00;;
20449;SDS011;10384;51.940;8.432;2024-02-15T04:45:47;19.13;;;7.57;;
20449;SDS011;10384;51.940;8.432;2024-02-15T04:48:13;16.87;;;8.07;;
20449;SDS011;10384;51.940;8.432;2024-02-15T04:50:39;18.93;;;7.33;;
20449;SDS011;10384;51.940;8.432;2024-02-15T04:53:08;20.47;;;7.03;;
20449;SDS011;10384;51.940;8.432;2024-02-15T04:55:34;20.43;;;7.20;;
20449;SDS011;10384;51.940;8.432;2024-02-15T04:58:00;14.63;;;6.83;;
20449;SDS011;10384;51.940;8.432;2024-02-15T05:00:26;16.33;;;7.00;;
20449;SDS011;10384;51.940;8.432;2024-02-15T05:02:52;16.53;;;7.03;;
20449;SDS011;10384;51.940;8.432;2024-02-15T05:05:18;15.43;;;7.17;;
20449;SDS011;10384;51.940;8.432;2024-02-15T05:07:44;14.83;;;6.20;;
20449;SDS011;10384;51.940;8.432;2024-02-15T05:10:10;14.10;;;6.07;;
20449;SDS011;10384;51.940;8.432;2024-02-15T05:12:37;13.00;;;5.87;;
20449;SDS011;10384;51.940;8.432;2024-02-15T05:15:05;14.43;;;6.47;;
20449;SDS011;10384;51.940;8.432;2024-02-15T05:17:41;12.70;;;6.00;;
20449;SDS011;10384;51.940;8.432;2024-02-15T05:20:10;15.57;;;5.80;;
20449;SDS011;10384;51.940;8.432;2024-02-15T05:22:38;15.13;;;6.03;;
20449;SDS011;10384;51.940;8.432;2024-02-15T05:25:05;12.93;;;5.53;;
20449;SDS011;10384;51.940;8.432;2024-02-15T05:27:33;12.50;;;5.17;;
20449;SDS011;10384;51.940;8.432;2024-02-15T05:29:59;12.20;;;5.33;;
20449;SDS011;10384;51.940;8.432;2024-02-15T05:32:25;14.47;;;5.90;;
20449;SDS011;10384;51.940;8.432;2024-02-15T05:34:51;10.90;;;5.13;;
20449;SDS011;10384;51.940;8.432;2024-02-15T05:37:19;13.10;;;5.60;;
20449;SDS011;10384;51.940;8.432;2024-02-15T05:39:45;14.60;;;5.23;;
20449;SDS011;10384;51.940;8.432;2024-02-15T05:42:11;15.90;;;5.90;;
20449;SDS011;10384;51.940;8.432;2024-02-15T05:44:36;11.90;;;5.23;;
20449;SDS011;10384;51.940;8.432;2024-02-15T05:47:02;11.53;;;5.13;;
20449;SDS011;10384;51.940;8.432;2024-02-15T05:49:28;11.03;;;5.10;;
20449;SDS011;10384;51.940;8.432;2024-02-15T05:51:54;13.43;;;6.27;;
20449;SDS011;10384;51.940;8.432;2024-02-15T05:54:19;12.13;;;5.10;;
20449;SDS011;10384;51.940;8.432;2024-02-15T05:56:47;15.50;;;5.70;;
20449;SDS011;10384;51.940;8.432;2024-02-15T05:59:16;11.93;;;5.60;;
20449;SDS011;10384;51.940;8.432;2024-02-15T06:01:45;10.43;;;4.70;;
20449;SDS011;10384;51.940;8.432;2024-02-15T06:04:13;15.10;;;6.40;;
20449;SDS011;10384;51.940;8.432;2024-02-15T06:06:39;12.00;;;5.10;;
20449;SDS011;10384;51.940;8.432;2024-02-15T06:09:05;12.17;;;6.23;;
20449;SDS011;10384;51.940;8.432;2024-02-15T06:11:31;12.77;;;5.63;;
20449;SDS011;10384;51.940;8.432;2024-02-15T06:13:56;15.60;;;6.13;;
20449;SDS011;10384;51.940;8.432;2024-02-15T06:16:22;12.13;;;5.57;;
20449;SDS011;10384;51.940;8.432;2024-02-15T06:18:48;12.83;;;5.57;;
20449;SDS011;10384;51.940;8.432;2024-02-15T06:21:13;10.73;;;4.90;;
20449;SDS011;10384;51.940;8.432;2024-02-15T06:23:39;11.63;;;4.90;;
20449;SDS011;10384;51.940;8.432;2024-02-15T06:26:05;10.10;;;4.67;;
20449;SDS011;10384;51.940;8.432;2024-02-15T06:28:31;11.43;;;4.60;;
20449;SDS011;10384;51.940;8.432;2024-02-15T06:31:16;9.53;;;4.47;;
20449;SDS011;10384;51.940;8.432;2024-02-15T06:34:00;12.30;;;5.10;;
20449;SDS011;10384;51.940;8.432;2024-02-15T06:36:47;12.53;;;4.97;;
20449;SDS011;10384;51.940;8.432;2024-02-15T06:39:33;10.13;;;4.70;;
20449;SDS011;10384;51.940;8.432;2024-02-15T06:42:09;11.03;;;4.73;;
20449;SDS011;10384;51.940;8.432;2024-02-15T06:44:36;11.13;;;4.50;;
20449;SDS011;10384;51.940;8.432;2024-02-15T06:47:05;13.33;;;4.43;;
20449;SDS011;10384;51.940;8.432;2024-02-15T06:49:31;8.17;;;4.20;;
20449;SDS011;10384;51.940;8.432;2024-02-15T06:51:58;12.40;;;4.20;;
20449;SDS011;10384;51.940;8.432;2024-02-15T06:54:24;9.37;;;4.17;;
20449;SDS011;10384;51.940;8.432;2024-02-15T06:56:49;11.43;;;4.03;;
20449;SDS011;10384;51.940;8.432;2024-02-15T06:59:17;11.30;;;3.90;;
20449;SDS011;10384;51.940;8.432;2024-02-15T07:01:43;8.23;;;4.10;;
20449;SDS011;10384;51.940;8.432;2024-02-15T07:04:09;10.70;;;3.87;;
20449;SDS011;10384;51.940;8.432;2024-02-15T07:06:36;8.33;;;3.80;;
20449;SDS011;10384;51.940;8.432;2024-02-15T07:09:05;8.37;;;3.80;;
20449;SDS011;10384;51.940;8.432;2024-02-15T07:11:34;9.97;;;4.10;;
20449;SDS011;10384;51.940;8.432;2024-02-15T07:14:00;9.10;;;4.23;;
20449;SDS011;10384;51.940;8.432;2024-02-15T07:16:26;7.90;;;3.80;;
20449;SDS011;10384;51.940;8.432;2024-02-15T07:18:52;10.70;;;4.60;;
20449;SDS011;10384;51.940;8.432;2024-02-15T07:21:19;10.80;;;3.93;;
20449;SDS011;10384;51.940;8.432;2024-02-15T07:23:50;7.87;;;4.03;;
20449;SDS011;10384;51.940;8.432;2024-02-15T07:26:16;13.40;;;4.73;;
20449;SDS011;10384;51.940;8.432;2024-02-15T07:28:45;10.80;;;4.33;;
20449;SDS011;10384;51.940;8.432;2024-02-15T07:31:11;8.30;;;4.23;;
20449;SDS011;10384;51.940;8.432;2024-02-15T07:33:37;11.73;;;4.83;;
20449;SDS011;10384;51.940;8.432;2024-02-15T07:36:03;11.73;;;5.17;;
20449;SDS011;10384;51.940;8.432;2024-02-15T07:38:29;11.10;;;4.80;;
20449;SDS011;10384;51.940;8.432;2024-02-15T07:40:59;10.20;;;5.03;;
20449;SDS011;10384;51.940;8.432;2024-02-15T07:43:25;12.97;;;4.60;;
20449;SDS011;10384;51.940;8.432;2024-02-15T07:45:51;9.93;;;4.87;;
20449;SDS011;10384;51.940;8.432;2024-02-15T07:48:17;13.80;;;4.90;;
20449;SDS011;10384;51.940;8.432;2024-02-15T07:50:43;13.90;;;4.07;;
20449;SDS011;10384;51.940;8.432;2024-02-15T07:53:09;12.17;;;4.57;;
20449;SDS011;10384;51.940;8.432;2024-02-15T07:55:36;10.03;;;4.40;;
20449;SDS011;10384;51.940;8.432;2024-02-15T07:58:03;9.53;;;4.13;;
20449;SDS011;10384;51.940;8.432;2024-02-15T08:00:29;11.13;;;4.17;;
20449;SDS011;10384;51.940;8.432;2024-02-15T08:02:55;8.50;;;4.33;;
20449;SDS011;10384;51.940;8.432;2024-02-15T08:05:22;8.57;;;3.90;;
20449;SDS011;10384;51.940;8.432;2024-02-15T08:07:48;10.90;;;4.53;;
20449;SDS011;10384;51.940;8.432;2024-02-15T08:10:13;11.67;;;4.70;;
20449;SDS011;10384;51.940;8.432;2024-02-15T08:12:48;7.63;;;3.63;;
20449;SDS011;10384;51.940;8.432;2024-02-15T08:15:17;9.00;;;4.30;;
20449;SDS011;10384;51.940;8.432;2024-02-15T08:17:43;8.93;;;4.13;;
20449;SDS011;10384;51.940;8.432;2024-02-15T08:20:13;8.47;;;3.93;;
20449;SDS011;10384;51.940;8.432;2024-02-15T08:22:39;7.73;;;3.87;;
20449;SDS011;10384;51.940;8.432;2024-02-15T08:25:06;11.80;;;4.07;;
20449;SDS011;10384;51.940;8.432;2024-02-15T08:27:42;9.97;;;3.67;;
20449;SDS011;10384;51.940;8.432;2024-02-15T08:30:09;9.07;;;4.10;;
20449;SDS011;10384;51.940;8.432;2024-02-15T08:32:37;10.83;;;3.80;;
20449;SDS011;10384;51.940;8.432;2024-02-15T08:35:07;11.00;;;3.60;;
20449;SDS011;10384;51.940;8.432;2024-02-15T08:37:37;9.87;;;3.97;;
20449;SDS011;10384;51.940;8.432;2024-02-15T08:40:03;6.10;;;3.60;;
20449;SDS011;10384;51.940;8.432;2024-02-15T08:42:35;9.37;;;3.53;;
20449;SDS011;10384;51.940;8.432;2024-02-15T08:45:04;7.60;;;3.60;;
20449;SDS011;10384;51.940;8.432;2024-02-15T08:47:30;7.30;;;3.50;;
20449;SDS011;10384;51.940;8.432;2024-02-15T08:49:56;6.10;;;3.03;;
20449;SDS011;10384;51.940;8.432;2024-02-15T08:52:21;5.13;;;3.07;;
20449;SDS011;10384;51.940;8.432;2024-02-15T08:54:47;7.17;;;3.80;;
20449;SDS011;10384;51.940;8.432;2024-02-15T08:57:13;8.03;;;3.07;;
20449;SDS011;10384;51.940;8.432;2024-02-15T08:59:38;4.87;;;2.80;;
20449;SDS011;10384;51.940;8.432;2024-02-15T09:02:04;7.67;;;3.33;;
20449;SDS011;10384;51.940;8.432;2024-02-15T09:04:30;4.47;;;2.70;;
20449;SDS011;10384;51.940;8.432;2024-02-15T09:06:56;12.03;;;3.20;;
20449;SDS011;10384;51.940;8.432;2024-02-15T09:09:22;6.27;;;3.00;;
20449;SDS011;10384;51.940;8.432;2024-02-15T09:11:47;6.53;;;2.90;;
20449;SDS011;10384;51.940;8.432;2024-02-15T09:14:13;7.20;;;2.80;;
20449;SDS011;10384;51.940;8.432;2024-02-15T09:16:38;7.97;;;3.33;;
20449;SDS011;10384;51.940;8.432;2024-02-15T09:19:04;7.03;;;3.40;;
20449;SDS011;10384;51.940;8.432;2024-02-15T09:21:31;7.00;;;3.23;;
20449;SDS011;10384;51.940;8.432;2024-02-15T09:23:58;6.70;;;2.80;;
20449;SDS011;10384;51.940;8.432;2024-02-15T09:26:24;5.57;;;2.70;;
20449;SDS011;10384;51.940;8.432;2024-02-15T09:28:50;5.83;;;2.77;;
20449;SDS011;10384;51.940;8.432;2024-02-15T09:31:16;7.10;;;2.60;;
20449;SDS011;10384;51.940;8.432;2024-02-15T09:33:41;4.53;;;2.57;;
20449;SDS011;10384;51.940;8.432;2024-02-15T09:36:07;5.30;;;2.87;;
20449;SDS011;10384;51.940;8.432;2024-02-15T09:38:33;6.73;;;2.57;;
20449;SDS011;10384;51.940;8.432;2024-02-15T09:40:58;10.10;;;3.00;;
20449;SDS011;10384;51.940;8.432;2024-02-15T09:43:24;5.83;;;2.53;;
20449;SDS011;10384;51.940;8.432;2024-02-15T09:45:54;4.43;;;2.67;;
20449;SDS011;10384;51.940;8.432;2024-02-15T09:48:19;7.80;;;2.90;;
20449;SDS011;10384;51.940;8.432;2024-02-15T09:50:50;6.30;;;2.33;;
20449;SDS011;10384;51.940;8.432;2024-02-15T09:53:20;6.10;;;2.67;;
20449;SDS011;10384;51.940;8.432;2024-02-15T09:55:46;5.17;;;2.50;;
20449;SDS011;10384;51.940;8.432;2024-02-15T09:58:13;5.93;;;3.00;;
20449;SDS011;10384;51.940;8.432;2024-02-15T10:00:41;7.17;;;2.87;;
20449;SDS011;10384;51.940;8.432;2024-02-15T10:03:08;3.70;;;2.40;;
20449;SDS011;10384;51.940;8.432;2024-02-15T10:05:39;5.13;;;2.27;;
20449;SDS011;10384;51.940;8.432;2024-02-15T10:08:05;6.13;;;2.70;;
20449;SDS011;10384;51.940;8.432;2024-02-15T10:10:32;11.17;;;3.10;;
20449;SDS011;10384;51.940;8.432;2024-02-15T10:13:00;5.47;;;2.63;;
20449;SDS011;10384;51.940;8.432;2024-02-15T10:15:26;7.03;;;3.50;;
20449;SDS011;10384;51.940;8.432;2024-02-15T10:18:00;7.10;;;2.63;;
20449;SDS011;10384;51.940;8.432;2024-02-15T10:20:27;6.63;;;3.07;;
20449;SDS011;10384;51.940;8.432;2024-02-15T10:23:14;5.40;;;2.73;;
20449;SDS011;10384;51.940;8.432;2024-02-15T10:25:42;5.73;;;2.30;;
20449;SDS011;10384;51.940;8.432;2024-02-15T10:28:09;5.20;;;2.53;;
20449;SDS011;10384;51.940;8.432;2024-02-15T10:30:36;9.00;;;2.80;;
20449;SDS011;10384;51.940;8.432;2024-02-15T10:33:10;6.20;;;2.50;;
20449;SDS011;10384;51.940;8.432;2024-02-15T10:35:50;6.50;;;2.87;;
20449;SDS011;10384;51.940;8.432;2024-02-15T10:38:39;9.43;;;3.10;;
20449;SDS011;10384;51.940;8.432;2024-02-15T10:41:05;6.70;;;2.63;;
20449;SDS011;10384;51.940;8.432;2024-02-15T10:43:35;4.37;;;2.70;;
20449;SDS011;10384;51.940;8.432;2024-02-15T10:46:04;4.73;;;2.70;;
20449;SDS011;10384;51.940;8.432;2024-02-15T10:48:34;9.87;;;2.97;;
20449;SDS011;10384;51.940;8.432;2024-02-15T10:51:00;6.70;;;2.90;;
20449;SDS011;10384;51.940;8.432;2024-02-15T10:53:30;7.17;;;2.87;;
20449;SDS011;10384;51.940;8.432;2024-02-15T10:58:41;5.13;;;2.80;;
20449;SDS011;10384;51.940;8.432;2024-02-15T11:01:12;6.13;;;3.07;;
20449;SDS011;10384;51.940;8.432;2024-02-15T11:03:52;8.00;;;2.80;;
20449;SDS011;10384;51.940;8.432;2024-02-15T11:06:26;5.53;;;3.30;;
20449;SDS011;10384;51.940;8.432;2024-02-15T11:08:55;6.83;;;3.07;;
20449;SDS011;10384;51.940;8.432;2024-02-15T11:11:21;4.50;;;2.53;;
20449;SDS011;10384;51.940;8.432;2024-02-15T11:13:47;4.87;;;2.30;;
20449;SDS011;10384;51.940;8.432;2024-02-15T11:16:38;5.70;;;3.00;;
20449;SDS011;10384;51.940;8.432;2024-02-15T11:19:06;5.40;;;2.97;;
20449;SDS011;10384;51.940;8.432;2024-02-15T11:24:24;5.20;;;2.90;;
20449;SDS011;10384;51.940;8.432;2024-02-15T11:26:50;6.83;;;2.67;;
20449;SDS011;10384;51.940;8.432;2024-02-15T11:29:59;6.07;;;2.73;;
20449;SDS011;10384;51.940;8.432;2024-02-15T11:40:13;3.67;;;2.30;;
20449;SDS011;10384;51.940;8.432;2024-02-15T11:42:44;6.63;;;2.60;;
20449;SDS011;10384;51.940;8.432;2024-02-15T11:45:11;5.33;;;2.47;;
20449;SDS011;10384;51.940;8.432;2024-02-15T11:47:38;5.23;;;2.40;;
20449;SDS011;10384;51.940;8.432;2024-02-15T11:50:10;6.83;;;2.43;;
20449;SDS011;10384;51.940;8.432;2024-02-15T11:52:40;3.93;;;2.13;;
20449;SDS011;10384;51.940;8.432;2024-02-15T11:55:07;5.20;;;1.90;;
20449;SDS011;10384;51.940;8.432;2024-02-15T11:57:38;5.17;;;2.00;;
20449;SDS011;10384;51.940;8.432;2024-02-15T12:00:20;2.93;;;1.90;;
20449;SDS011;10384;51.940;8.432;2024-02-15T12:03:05;4.47;;;1.70;;
20449;SDS011;10384;51.940;8.432;2024-02-15T12:05:50;6.93;;;1.70;;
20449;SDS011;10384;51.940;8.432;2024-02-15T12:08:35;5.37;;;2.07;;
20449;SDS011;10384;51.940;8.432;2024-02-15T12:11:19;3.03;;;1.77;;
20449;SDS011;10384;51.940;8.432;2024-02-15T12:14:03;3.43;;;1.80;;
20449;SDS011;10384;51.940;8.432;2024-02-15T12:16:58;5.63;;;2.30;;
20449;SDS011;10384;51.940;8.432;2024-02-15T12:19:43;4.77;;;2.30;;
20449;SDS011;10384;51.940;8.432;2024-02-15T12:22:09;5.70;;;2.30;;
20449;SDS011;10384;51.940;8.432;2024-02-15T12:24:35;4.97;;;2.60;;
20449;SDS011;10384;51.940;8.432;2024-02-15T12:27:01;6.03;;;2.97;;
20449;SDS011;10384;51.940;8.432;2024-02-15T12:29:31;7.30;;;2.83;;
20449;SDS011;10384;51.940;8.432;2024-02-15T12:31:58;4.43;;;2.33;;
20449;SDS011;10384;51.940;8.432;2024-02-15T12:34:24;6.23;;;2.47;;
20449;SDS011;10384;51.940;8.432;2024-02-15T12:36:49;4.13;;;2.30;;
20449;SDS011;10384;51.940;8.432;2024-02-15T12:39:23;3.60;;;2.60;;
20449;SDS011;10384;51.940;8.432;2024-02-15T12:41:50;7.47;;;2.47;;
20449;SDS011;10384;51.940;8.432;2024-02-15T12:44:16;4.97;;;2.70;;
20449;SDS011;10384;51.940;8.432;2024-02-15T12:46:45;7.20;;;2.63;;
20449;SDS011;10384;51.940;8.432;2024-02-15T12:51:50;6.83;;;2.97;;
20449;SDS011;10384;51.940;8.432;2024-02-15T12:54:22;6.90;;;3.00;;
20449;SDS011;10384;51.940;8.432;2024-02-15T12:56:48;5.67;;;2.70;;
20449;SDS011;10384;51.940;8.432;2024-02-15T12:59:16;5.97;;;2.50;;
20449;SDS011;10384;51.940;8.432;2024-02-15T13:01:42;4.53;;;2.27;;
20449;SDS011;10384;51.940;8.432;2024-02-15T13:04:07;4.30;;;2.33;;
20449;SDS011;10384;51.940;8.432;2024-02-15T13:06:33;5.33;;;2.80;;
20449;SDS011;10384;51.940;8.432;2024-02-15T13:09:01;6.10;;;2.60;;
20449;SDS011;10384;51.940;8.432;2024-02-15T13:11:30;7.30;;;2.70;;
20449;SDS011;10384;51.940;8.432;2024-02-15T13:13:57;6.33;;;2.73;;
20449;SDS011;10384;51.940;8.432;2024-02-15T13:16:22;5.27;;;2.27;;
20449;SDS011;10384;51.940;8.432;2024-02-15T13:18:48;6.43;;;2.03;;
20449;SDS011;10384;51.940;8.432;2024-02-15T13:21:14;7.50;;;2.80;;
20449;SDS011;10384;51.940;8.432;2024-02-15T13:23:40;7.33;;;2.30;;
20449;SDS011;10384;51.940;8.432;2024-02-15T13:26:05;4.63;;;2.30;;
20449;SDS011;10384;51.940;8.432;2024-02-15T13:28:33;5.83;;;3.03;;
20449;SDS011;10384;51.940;8.432;2024-02-15T13:30:58;3.73;;;2.70;;
20449;SDS011;10384;51.940;8.432;2024-02-15T13:33:24;8.93;;;3.17;;
20449;SDS011;10384;51.940;8.432;2024-02-15T13:35:51;10.77;;;2.70;;
20449;SDS011;10384;51.940;8.432;2024-02-15T13:38:17;4.53;;;2.43;;
20449;SDS011;10384;51.940;8.432;2024-02-15T13:40:47;5.33;;;2.50;;
20449;SDS011;10384;51.940;8.432;2024-02-15T13:43:16;4.50;;;2.83;;
20449;SDS011;10384;51.940;8.432;2024-02-15T13:45:43;8.17;;;2.57;;
20449;SDS011;10384;51.940;8.432;2024-02-15T13:48:10;7.20;;;2.73;;
20449;SDS011;10384;51.940;8.432;2024-02-15T13:50:40;6.17;;;2.83;;
20449;SDS011;10384;51.940;8.432;2024-02-15T13:53:06;10.53;;;4.00;;
20449;SDS011;10384;51.940;8.432;2024-02-15T13:55:34;8.60;;;3.67;;
20449;SDS011;10384;51.940;8.432;2024-02-15T13:58:01;5.13;;;2.80;;
20449;SDS011;10384;51.940;8.432;2024-02-15T14:00:26;6.27;;;2.83;;
20449;SDS011;10384;51.940;8.432;2024-02-15T14:02:56;6.57;;;3.00;;
20449;SDS011;10384;51.940;8.432;2024-02-15T14:05:24;7.40;;;3.10;;
20449;SDS011;10384;51.940;8.432;2024-02-15T14:07:54;6.47;;;3.20;;
20449;SDS011;10384;51.940;8.432;2024-02-15T14:10:21;10.73;;;3.00;;
20449;SDS011;10384;51.940;8.432;2024-02-15T14:12:48;6.20;;;2.73;;
20449;SDS011;10384;51.940;8.432;2024-02-15T14:15:17;5.10;;;2.70;;
20449;SDS011;10384;51.940;8.432;2024-02-15T14:17:43;5.83;;;2.60;;
20449;SDS011;10384;51.940;8.432;2024-02-15T14:20:10;7.50;;;2.67;;
20449;SDS011;10384;51.940;8.432;2024-02-15T14:22:39;6.17;;;2.33;;
20449;SDS011;10384;51.940;8.432;2024-02-15T14:25:05;5.57;;;2.70;;
20449;SDS011;10384;51.940;8.432;2024-02-15T14:27:32;4.33;;;2.50;;
20449;SDS011;10384;51.940;8.432;2024-02-15T14:29:58;6.90;;;2.20;;
20449;SDS011;10384;51.940;8.432;2024-02-15T14:32:42;5.07;;;2.47;;
20449;SDS011;10384;51.940;8.432;2024-02-15T14:35:28;4.43;;;2.70;;
20449;SDS011;10384;51.940;8.432;2024-02-15T14:38:09;8.43;;;2.67;;
20449;SDS011;10384;51.940;8.432;2024-02-15T14:40:40;5.40;;;2.40;;
20449;SDS011;10384;51.940;8.432;2024-02-15T14:43:17;6.93;;;2.47;;
20449;SDS011;10384;51.940;8.432;2024-02-15T14:45:46;4.80;;;2.40;;
20449;SDS011;10384;51.940;8.432;2024-02-15T14:48:12;8.83;;;3.63;;
20449;SDS011;10384;51.940;8.432;2024-02-15T14:50:41;5.17;;;2.60;;
20449;SDS011;10384;51.940;8.432;2024-02-15T14:53:07;5.70;;;2.13;;
20449;SDS011;10384;51.940;8.432;2024-02-15T14:55:34;4.20;;;2.20;;
20449;SDS011;10384;51.940;8.432;2024-02-15T14:58:00;3.97;;;2.53;;
20449;SDS011;10384;51.940;8.432;2024-02-15T15:00:26;6.23;;;2.30;;